Terminal Aerodrome Forecast
Issued by NWS Amarillo, TX

Home | Current Version | Previous Version | Text Only | Print | Product List | Glossary On
Versions: 1 2 3 4 5 6 7 8 9 10 11 12 13 14 15 16
000
FTUS44 KAMA 040500
TAFGUY
TAF
KGUY 040520Z 0406/0506 17009KT P6SM SCT050 BKN100 OVC300
     FM040900 VRB06KT P6SM BKN100 OVC300
     FM041500 17011KT P6SM SCT100 BKN300
     FM041900 18015G24KT P6SM SCT040 BKN100 OVC300
     FM050000 17012KT P6SM SCT030 BKN100 OVC300
      TEMPO 0500/0504 4SM TSRA OVC020CB
     FM050400 17010KT 6SM -SHRA OVC015=

USA.gov is the U.S. government's official web portal to all federal, state and local government web resources and services.